Time;durP1;ratioP1;P1;durP2;ratioP2;P2;SDS_P1;SDS_P2;PMS_P1;PMS_P2;Temp;Humidity;BMP_temperature;BMP_pressure;BME280_temperature;BME280_humidity;BME280_pressure;Samples;Min_cycle;Max_cycle;Signal;HPM_P1;HPM_P2
2023/01/12 00:02:04;;;;;;;45.10;25.77;;;2.50;99.90;;;;;;5014610;28;20045;-77
2023/01/12 00:04:30;;;;;;;45.75;26.15;;;2.50;99.90;;;;;;5032106;28;20072;-77
2023/01/12 00:06:57;;;;;;;42.50;22.70;;;2.50;99.90;;;;;;5014972;28;20544;-82
2023/01/12 00:09:26;;;;;;;49.47;24.98;;;2.60;99.90;;;;;;5052234;28;20527;-83
2023/01/12 00:11:51;;;;;;;47.88;25.67;;;2.50;99.90;;;;;;5052547;28;20055;-78
2023/01/12 00:14:17;;;;;;;41.22;23.70;;;2.50;99.90;;;;;;5034723;28;20045;-79
2023/01/12 00:16:43;;;;;;;43.22;24.13;;;2.50;99.90;;;;;;5033816;28;20029;-77
2023/01/12 00:19:14;;;;;;;43.50;24.27;;;2.50;99.90;;;;;;5052180;28;20100;-81
2023/01/12 00:21:45;;;;;;;40.40;22.77;;;2.50;99.90;;;;;;5052208;28;20029;-79
2023/01/12 00:24:11;;;;;;;39.03;21.23;;;2.50;99.90;;;;;;5052184;28;20105;-74
2023/01/12 00:26:37;;;;;;;44.47;24.23;;;2.50;99.90;;;;;;5034175;28;20021;-76
2023/01/12 00:29:02;;;;;;;44.33;24.58;;;2.50;99.90;;;;;;5034407;28;20044;-76
2023/01/12 00:31:28;;;;;;;44.78;24.15;;;2.50;99.90;;;;;;5050907;28;20383;-76
2023/01/12 00:33:53;;;;;;;40.33;22.92;;;2.50;99.90;;;;;;5052076;28;20043;-75
2023/01/12 00:36:19;;;;;;;42.78;22.13;;;2.50;99.90;;;;;;5034254;28;20029;-80
2023/01/12 00:38:45;;;;;;;42.90;24.52;;;2.50;99.90;;;;;;5033724;28;20389;-82
2023/01/12 00:45:20;;;;;;;40.03;21.85;;;2.50;99.90;;;;;;5034135;28;20029;-76
2023/01/12 00:46:45;;;;;;;39.08;21.08;;;2.50;99.90;;;;;;5051140;28;20070;-76
2023/01/12 00:49:10;;;;;;;42.90;21.88;;;2.50;99.90;;;;;;5034042;28;20025;-77
2023/01/12 00:51:36;;;;;;;44.60;23.13;;;2.50;99.90;;;;;;5051490;28;20033;-76
2023/01/12 00:54:03;;;;;;;38.33;21.58;;;2.50;99.90;;;;;;5051746;28;20029;-76
2023/01/12 00:56:33;;;;;;;39.72;21.10;;;2.50;99.90;;;;;;5033447;28;20398;-76
2023/01/12 00:58:59;;;;;;;34.88;19.98;;;2.60;99.90;;;;;;5052002;28;20107;-76
2023/01/12 01:01:25;;;;;;;40.40;22.05;;;2.60;99.90;;;;;;5119736;27;20060;-76
2023/01/12 01:03:50;;;;;;;39.42;20.77;;;2.60;99.90;;;;;;5103652;28;20498;-76
2023/01/12 01:06:16;;;;;;;33.67;19.38;;;2.60;99.90;;;;;;5117330;27;20025;-76
2023/01/12 01:08:41;;;;;;;34.00;17.17;;;2.60;99.90;;;;;;5034608;27;20048;-76
2023/01/12 01:11:19;;;;;;;31.20;16.23;;;2.60;99.90;;;;;;5040303;28;20032;-81
2023/01/12 01:13:45;;;;;;;30.05;16.30;;;2.70;99.90;;;;;;5072550;28;20123;-76
2023/01/12 01:16:12;;;;;;;27.73;14.88;;;2.70;99.90;;;;;;5052738;28;20086;-76
2023/01/12 01:18:39;;;;;;;24.92;14.52;;;2.70;99.90;;;;;;5121681;27;20073;-76
2023/01/12 01:21:04;;;;;;;27.38;15.23;;;2.70;99.90;;;;;;5052664;27;20071;-76
2023/01/12 01:23:33;;;;;;;26.45;14.45;;;2.80;99.90;;;;;;5121551;27;20044;-76
2023/01/12 01:26:14;;;;;;;21.00;12.50;;;2.80;99.90;;;;;;5052417;27;20390;-76
2023/01/12 01:28:39;;;;;;;21.08;10.95;;;2.80;99.90;;;;;;5052576;27;20486;-80
2023/01/12 01:31:14;;;;;;;23.30;12.55;;;2.80;99.90;;;;;;5121286;27;20053;-77
2023/01/12 01:33:40;;;;;;;19.88;11.35;;;2.90;99.90;;;;;;5121550;27;20045;-77
2023/01/12 01:36:06;;;;;;;22.70;12.70;;;2.90;99.90;;;;;;5121368;27;20436;-76
2023/01/12 01:38:32;;;;;;;23.67;11.55;;;2.90;99.90;;;;;;5121093;27;20077;-77
2023/01/12 01:40:58;;;;;;;20.02;11.52;;;2.90;99.90;;;;;;5121231;27;20017;-80
2023/01/12 01:43:27;;;;;;;19.05;11.68;;;3.00;99.90;;;;;;5052005;27;20085;-80
2023/01/12 01:46:06;;;;;;;24.48;12.77;;;2.90;99.90;;;;;;5052119;27;20065;-76
2023/01/12 01:48:34;;;;;;;20.33;12.30;;;3.00;99.90;;;;;;5121137;27;20045;-80
2023/01/12 01:51:07;;;;;;;26.38;14.60;;;3.00;99.90;;;;;;5120906;27;20021;-80
2023/01/12 01:53:36;;;;;;;20.77;12.68;;;3.00;99.90;;;;;;5120939;27;20033;-76
2023/01/12 01:56:17;;;;;;;27.90;14.07;;;3.00;99.90;;;;;;5052046;27;20025;-80
2023/01/12 01:58:51;;;;;;;23.85;12.02;;;3.00;99.90;;;;;;5051945;27;20100;-80
2023/01/12 02:01:17;;;;;;;22.70;12.45;;;3.00;99.90;;;;;;5052011;27;20018;-81
2023/01/12 02:03:44;;;;;;;23.00;12.52;;;3.00;99.90;;;;;;5051788;28;20029;-80
2023/01/12 02:06:10;;;;;;;23.23;12.90;;;3.00;99.90;;;;;;5120279;27;20017;-77
2023/01/12 02:08:56;;;;;;;22.92;12.50;;;3.00;99.90;;;;;;5120695;27;20401;-80
2023/01/12 02:17:24;;;;;;;23.30;12.45;;;3.00;99.90;;;;;;5051587;28;20032;-81
2023/01/12 02:20:09;;;;;;;23.70;12.85;;;3.10;99.90;;;;;;5051529;27;20028;-76
2023/01/12 02:22:47;;;;;;;26.42;13.98;;;3.10;99.90;;;;;;5051499;28;20032;-82
2023/01/12 02:25:34;;;;;;;25.00;13.60;;;3.10;99.90;;;;;;5051632;27;20025;-80
2023/01/12 02:28:30;;;;;;;25.67;14.45;;;3.10;99.90;;;;;;5120310;27;20041;-81
2023/01/12 02:31:41;;;;;;;23.10;14.48;;;3.10;99.90;;;;;;5120130;27;20074;-76
2023/01/12 02:34:26;;;;;;;29.85;17.48;;;3.10;99.90;;;;;;5120218;27;20033;-76
2023/01/12 02:37:12;;;;;;;28.52;17.42;;;3.10;99.90;;;;;;5120139;27;20101;-76
2023/01/12 02:39:43;;;;;;;38.03;17.92;;;3.10;99.90;;;;;;5051274;27;20025;-76
2023/01/12 02:42:43;;;;;;;34.45;17.17;;;3.10;99.90;;;;;;5119876;27;20017;-80
2023/01/12 02:45:21;;;;;;;25.83;13.13;;;3.20;99.90;;;;;;5120072;27;20036;-76
2023/01/12 02:48:01;;;;;;;24.65;13.45;;;3.20;99.90;;;;;;5119909;27;20127;-80
2023/01/12 02:50:48;;;;;;;21.55;13.70;;;3.20;99.90;;;;;;5051196;28;20025;-76
2023/01/12 02:53:50;;;;;;;21.52;13.38;;;3.20;99.90;;;;;;5119652;27;20035;-76
2023/01/12 02:56:32;;;;;;;24.15;12.43;;;3.20;99.90;;;;;;5051406;27;20037;-76
2023/01/12 02:59:02;;;;;;;21.30;12.63;;;3.20;99.90;;;;;;5119760;27;20476;-80
2023/01/12 03:01:32;;;;;;;23.35;13.15;;;3.20;99.90;;;;;;5050810;27;20025;-76
2023/01/12 03:04:02;;;;;;;22.38;13.25;;;3.20;99.90;;;;;;5050904;27;20044;-76
2023/01/12 03:06:56;;;;;;;23.27;13.10;;;3.20;99.90;;;;;;5119632;27;20021;-76
2023/01/12 03:09:42;;;;;;;22.13;12.15;;;3.20;99.90;;;;;;5119412;27;20051;-76
2023/01/12 03:12:19;;;;;;;22.67;14.27;;;3.20;99.90;;;;;;5050642;28;20041;-76
2023/01/12 03:14:48;;;;;;;23.70;12.68;;;3.20;99.90;;;;;;5050919;27;20036;-80
2023/01/12 03:17:21;;;;;;;25.25;13.98;;;3.20;99.90;;;;;;5050608;27;20013;-80
2023/01/12 03:19:47;;;;;;;;;;;3.20;99.90;;;;;;5051203;27;20026;-80
2023/01/12 03:22:15;;;;;;;25.83;14.40;;;3.20;99.90;;;;;;5050602;27;19904;-76
2023/01/12 03:24:45;;;;;;;23.80;13.15;;;3.20;99.90;;;;;;5050628;27;20413;-76
2023/01/12 03:27:17;;;;;;;23.38;14.40;;;3.20;99.90;;;;;;5050494;27;20112;-77
2023/01/12 03:29:48;;;;;;;21.58;13.88;;;3.30;99.90;;;;;;5050533;27;20108;-80
2023/01/12 03:32:13;;;;;;;21.02;12.48;;;3.30;99.90;;;;;;5118739;27;20072;-80
2023/01/12 03:34:39;;;;;;;27.33;15.23;;;3.30;99.90;;;;;;5118874;27;20083;-81
2023/01/12 03:37:18;;;;;;;23.38;13.52;;;3.30;99.90;;;;;;5050192;28;20104;-81
2023/01/12 03:40:16;;;;;;;24.83;14.25;;;3.20;99.90;;;;;;5050461;28;20057;-77
2023/01/12 03:42:59;;;;;;;22.27;13.35;;;3.30;99.90;;;;;;5032537;28;20025;-77
2023/01/12 03:45:38;;;;;;;28.10;14.77;;;3.30;99.90;;;;;;5032522;28;20473;-76
2023/01/12 03:48:22;;;;;;;30.67;14.70;;;3.30;99.90;;;;;;5050307;28;20033;-77
2023/01/12 03:50:56;;;;;;;26.33;14.30;;;3.30;99.90;;;;;;5050243;28;20374;-80
2023/01/12 03:53:23;;;;;;;20.23;12.45;;;3.30;99.90;;;;;;5050004;28;20043;-77
2023/01/12 03:55:52;;;;;;;20.80;13.52;;;3.30;99.90;;;;;;5050278;28;20068;-76
2023/01/12 03:58:18;;;;;;;28.13;14.23;;;3.30;99.90;;;;;;5049933;28;20044;-76
2023/01/12 04:00:43;;;;;;;24.23;12.75;;;3.30;99.90;;;;;;5050011;28;20422;-76
2023/01/12 04:03:12;;;;;;;21.77;13.00;;;3.30;99.90;;;;;;5050005;28;20049;-80
2023/01/12 04:05:40;;;;;;;24.55;15.23;;;3.30;99.90;;;;;;5050170;28;20036;-76
2023/01/12 04:08:07;;;;;;;24.80;13.90;;;3.30;99.90;;;;;;5032253;28;20040;-76
2023/01/12 04:10:32;;;;;;;24.95;15.52;;;3.30;99.90;;;;;;5032130;28;20048;-81
2023/01/12 04:12:58;;;;;;;23.83;13.60;;;3.30;99.90;;;;;;5032228;28;20017;-77
2023/01/12 04:15:23;;;;;;;28.23;15.52;;;3.30;99.90;;;;;;5050000;28;20037;-80
2023/01/12 04:17:49;;;;;;;24.13;14.63;;;3.30;99.90;;;;;;5049935;28;20029;-81
2023/01/12 04:20:15;;;;;;;26.20;14.73;;;3.40;99.90;;;;;;5049884;28;20052;-78
2023/01/12 04:22:43;;;;;;;29.02;14.82;;;3.30;99.90;;;;;;5032142;28;20029;-76
2023/01/12 04:25:18;;;;;;;29.48;15.25;;;3.30;99.90;;;;;;5031965;28;20390;-77
2023/01/12 04:27:52;;;;;;;24.27;15.45;;;3.40;99.90;;;;;;5031973;28;20363;-80
2023/01/12 04:30:22;;;;;;;28.15;15.18;;;3.40;99.90;;;;;;5050230;28;20374;-76
2023/01/12 04:32:48;;;;;;;24.63;15.73;;;3.40;99.90;;;;;;5008797;28;20088;-80
2023/01/12 04:35:15;;;;;;;26.23;14.98;;;3.40;99.90;;;;;;5010073;28;20030;-76
2023/01/12 04:37:42;;;;;;;26.85;15.77;;;3.40;99.90;;;;;;5010110;28;20624;-80
2023/01/12 04:40:10;;;;;;;23.90;14.65;;;3.40;99.90;;;;;;5009979;28;20033;-80
2023/01/12 04:45:20;;;;;;;25.98;14.80;;;3.40;99.90;;;;;;5013546;28;20049;-80
2023/01/12 04:47:45;;;;;;;25.98;15.18;;;3.40;99.90;;;;;;5013380;28;20022;-80
2023/01/12 04:50:11;;;;;;;25.70;15.93;;;3.40;99.90;;;;;;5028578;28;20026;-78
2023/01/12 04:52:37;;;;;;;24.05;14.90;;;3.40;99.90;;;;;;5028403;28;20029;-77
2023/01/12 04:55:03;;;;;;;27.00;15.60;;;3.50;99.90;;;;;;5028472;28;20029;-77
2023/01/12 04:57:29;;;;;;;30.45;16.05;;;3.50;99.90;;;;;;5013137;28;20030;-80
2023/01/12 04:59:55;;;;;;;29.67;15.85;;;3.40;99.90;;;;;;5028464;28;20022;-80
2023/01/12 05:02:21;;;;;;;27.98;15.57;;;3.40;99.90;;;;;;5013252;28;20109;-76
2023/01/12 05:04:46;;;;;;;31.90;17.75;;;3.50;99.90;;;;;;5028365;28;20022;-80
2023/01/12 05:07:12;;;;;;;31.63;17.10;;;3.50;99.90;;;;;;5028182;28;20099;-80
2023/01/12 05:12:29;;;;;;;28.80;15.07;;;3.50;99.90;;;;;;5024165;28;20042;-76
2023/01/12 05:14:55;;;;;;;35.75;18.23;;;3.50;99.90;;;;;;4993300;28;20022;-76
2023/01/12 05:17:21;;;;;;;35.85;17.30;;;3.50;99.90;;;;;;5008283;28;20025;-80
2023/01/12 05:19:48;;;;;;;35.10;18.85;;;3.50;99.90;;;;;;5008232;28;20369;-80
2023/01/12 05:22:14;;;;;;;35.95;18.58;;;3.50;99.90;;;;;;4993121;28;20470;-77
2023/01/12 05:24:39;;;;;;;33.78;18.95;;;3.40;99.90;;;;;;4993238;28;20106;-77
2023/01/12 05:27:05;;;;;;;37.35;21.17;;;3.40;99.90;;;;;;4993151;28;20469;-80
2023/01/12 05:29:31;;;;;;;30.17;16.95;;;3.40;99.90;;;;;;5008203;28;20488;-76
2023/01/12 05:31:56;;;;;;;40.72;18.98;;;3.40;99.90;;;;;;5011218;28;20061;-80
2023/01/12 05:34:22;;;;;;;39.15;21.92;;;3.40;99.90;;;;;;5027887;28;20025;-76
2023/01/12 05:36:48;;;;;;;39.35;19.63;;;3.50;99.90;;;;;;5013029;28;20040;-80
2023/01/12 05:39:14;;;;;;;39.63;21.90;;;3.50;99.90;;;;;;5011274;28;20026;-80
2023/01/12 05:43:48;;;;;;;54.58;23.30;;;3.50;99.90;;;;;;5012453;28;20037;-80
2023/01/12 05:44:25;;;;;;;50.33;22.70;;;3.50;99.90;;;;;;5012170;28;20034;-76
2023/01/12 05:46:51;;;;;;;52.42;23.10;;;3.50;99.90;;;;;;5027493;28;20033;-76
2023/01/12 05:49:16;;;;;;;61.22;25.70;;;3.50;99.90;;;;;;5011082;28;20076;-80
2023/01/12 05:51:42;;;;;;;71.93;28.60;;;3.50;99.90;;;;;;5012326;28;20121;-80
2023/01/12 05:54:07;;;;;;;65.28;26.25;;;3.50;99.90;;;;;;5027189;28;20060;-80
2023/01/12 05:56:33;;;;;;;59.47;25.00;;;3.50;99.90;;;;;;5012437;28;20028;-80
2023/01/12 05:59:01;;;;;;;57.67;23.60;;;3.50;99.90;;;;;;5011025;28;20010;-80
2023/01/12 06:01:28;;;;;;;73.50;26.60;;;3.50;99.90;;;;;;5011021;28;20022;-77
2023/01/12 06:03:56;;;;;;;72.32;28.08;;;3.50;99.90;;;;;;5010972;28;20053;-80
2023/01/12 06:06:24;;;;;;;67.40;26.88;;;3.50;99.90;;;;;;5010799;28;20502;-76
2023/01/12 06:08:51;;;;;;;58.75;24.05;;;3.50;99.90;;;;;;5012140;28;20038;-76
2023/01/12 06:14:02;;;;;;;57.45;25.45;;;3.50;99.90;;;;;;5012454;28;20052;-76
2023/01/12 06:16:27;;;;;;;59.03;28.00;;;3.50;99.90;;;;;;5031322;28;20026;-76
2023/01/12 06:18:54;;;;;;;46.72;24.00;;;3.50;99.90;;;;;;5030277;28;20155;-80
2023/01/12 06:21:19;;;;;;;44.63;22.15;;;3.50;99.90;;;;;;5030447;28;20026;-76
2023/01/12 06:23:45;;;;;;;58.92;26.00;;;3.50;99.90;;;;;;5030293;28;20029;-77
2023/01/12 06:26:11;;;;;;;55.92;26.33;;;3.50;99.90;;;;;;5033029;28;20030;-80
2023/01/12 06:28:38;;;;;;;57.88;28.13;;;3.50;99.90;;;;;;5030175;28;20042;-77
2023/01/12 06:31:07;;;;;;;56.58;27.73;;;3.50;99.90;;;;;;5037062;28;20053;-81
2023/01/12 06:33:33;;;;;;;58.95;27.08;;;3.50;99.90;;;;;;5050812;28;20142;-81
2023/01/12 06:35:59;;;;;;;58.28;29.58;;;3.50;99.90;;;;;;5051068;28;20048;-81
2023/01/12 06:38:27;;;;;;;74.30;30.73;;;3.50;99.90;;;;;;5051276;27;20028;-81
2023/01/12 06:40:56;;;;;;;80.45;31.80;;;3.50;99.90;;;;;;5050969;28;20029;-77
2023/01/12 06:43:21;;;;;;;70.20;29.02;;;3.50;99.90;;;;;;5120083;27;20130;-78
2023/01/12 06:45:47;;;;;;;76.78;29.52;;;3.50;99.90;;;;;;5119476;27;20029;-78
2023/01/12 06:48:13;;;;;;;73.95;30.10;;;3.50;99.90;;;;;;5050203;28;20046;-81
2023/01/12 06:50:39;;;;;;;72.55;30.05;;;3.50;99.90;;;;;;5051050;28;20017;-82
2023/01/12 06:53:05;;;;;;;75.32;30.58;;;3.50;99.90;;;;;;5050902;28;20528;-77
2023/01/12 06:55:31;;;;;;;69.10;28.55;;;3.50;99.90;;;;;;5050263;28;20053;-77
2023/01/12 06:58:02;;;;;;;59.25;28.58;;;3.50;99.90;;;;;;5119486;27;20061;-82
2023/01/12 07:00:28;;;;;;;67.47;28.70;;;3.50;99.90;;;;;;5048533;27;20029;-77
2023/01/12 07:02:53;;;;;;;55.22;28.63;;;3.50;99.90;;;;;;5117622;27;20066;-77
2023/01/12 07:05:19;;;;;;;75.78;31.77;;;3.50;99.90;;;;;;5049295;28;20025;-76
2023/01/12 07:07:44;;;;;;;52.55;27.20;;;3.50;99.90;;;;;;5116831;27;20060;-77
2023/01/12 07:10:11;;;;;;;59.78;28.45;;;3.50;99.90;;;;;;5013231;28;20032;-77
2023/01/12 07:12:37;;;;;;;62.58;29.00;;;3.50;99.90;;;;;;5029368;28;20078;-77
2023/01/12 07:15:04;;;;;;;55.28;25.92;;;3.50;99.90;;;;;;5030097;28;20021;-82
2023/01/12 07:17:30;;;;;;;55.92;26.77;;;3.50;99.90;;;;;;5029607;28;20017;-81
2023/01/12 07:19:55;;;;;;;41.88;21.70;;;3.50;99.90;;;;;;5013131;28;20033;-82
2023/01/12 07:22:21;;;;;;;43.10;23.23;;;3.50;99.90;;;;;;5012917;28;20026;-77
2023/01/12 07:24:47;;;;;;;49.83;24.92;;;3.50;99.90;;;;;;5012911;28;20026;-82
2023/01/12 07:27:12;;;;;;;43.58;23.85;;;3.50;99.90;;;;;;5012965;28;20032;-82
2023/01/12 07:29:38;;;;;;;45.33;24.50;;;3.50;99.90;;;;;;5018574;27;20048;-82
2023/01/12 07:32:04;;;;;;;51.70;24.20;;;3.50;99.90;;;;;;5028681;28;20410;-82
2023/01/12 07:34:30;;;;;;;42.42;22.15;;;3.50;99.90;;;;;;5028614;28;20055;-82
2023/01/12 07:36:55;;;;;;;51.60;24.98;;;3.50;99.90;;;;;;5047379;28;20172;-82
2023/01/12 07:39:21;;;;;;;39.28;21.58;;;3.50;99.90;;;;;;5066225;27;20370;-82
2023/01/12 07:44:31;;;;;;;48.80;22.95;;;3.50;99.90;;;;;;5047976;28;20366;-77
2023/01/12 07:46:58;;;;;;;47.78;24.42;;;3.50;99.90;;;;;;5103856;28;20025;-77
2023/01/12 07:49:24;;;;;;;51.72;25.67;;;3.50;99.90;;;;;;5031259;28;20502;-81
2023/01/12 07:51:52;;;;;;;39.95;22.08;;;3.50;99.90;;;;;;5049989;28;20105;-82
2023/01/12 07:54:18;;;;;;;42.83;23.65;;;3.50;99.90;;;;;;5090089;27;20117;-81
2023/01/12 07:56:43;;;;;;;50.38;24.77;;;3.50;99.90;;;;;;5079338;27;20145;-82
2023/01/12 07:59:09;;;;;;;46.28;23.98;;;3.50;99.90;;;;;;5084448;27;20384;-82
2023/01/12 08:01:36;;;;;;;47.50;22.55;;;3.50;99.90;;;;;;5105693;27;20032;-82
2023/01/12 08:04:01;;;;;;;48.30;23.92;;;3.60;99.90;;;;;;5053426;28;20025;-76
2023/01/12 08:06:27;;;;;;;55.35;26.40;;;3.60;99.90;;;;;;5049830;28;20035;-77
2023/01/12 08:08:53;;;;;;;61.35;28.95;;;3.60;99.90;;;;;;5049765;28;20035;-77
2023/01/12 08:11:19;;;;;;;218.60;94.95;;;3.60;99.90;;;;;;5049902;28;20069;-82
2023/01/12 08:13:44;;;;;;;115.32;51.28;;;3.60;99.90;;;;;;5031966;28;20021;-77
2023/01/12 08:16:16;;;;;;;105.07;42.17;;;3.60;99.90;;;;;;5049772;28;20043;-77
2023/01/12 08:18:56;;;;;;;111.88;53.47;;;3.70;99.90;;;;;;5035171;28;20116;-77
2023/01/12 08:21:25;;;;;;;241.13;105.80;;;3.70;99.90;;;;;;5035508;28;20029;-82
2023/01/12 08:23:56;;;;;;;515.95;246.52;;;3.70;99.90;;;;;;5035518;28;20025;-77
2023/01/12 08:26:26;;;;;;;374.23;161.75;;;3.70;99.90;;;;;;5053492;28;20363;-77
2023/01/12 08:29:08;;;;;;;205.02;88.55;;;3.70;99.90;;;;;;5035206;28;20505;-82
2023/01/12 08:31:35;;;;;;;215.00;81.30;;;3.70;99.90;;;;;;5047457;27;20398;-77
2023/01/12 08:34:00;;;;;;;317.02;107.75;;;3.70;99.90;;;;;;5103111;27;20026;-82
2023/01/12 08:36:28;;;;;;;69.45;34.13;;;3.70;99.90;;;;;;5107223;27;20049;-82
2023/01/12 08:38:55;;;;;;;147.80;52.88;;;3.70;99.90;;;;;;5090796;27;20031;-82
2023/01/12 08:41:32;;;;;;;88.45;37.95;;;3.70;99.90;;;;;;5090055;27;20170;-82
2023/01/12 08:44:10;;;;;;;190.75;74.00;;;3.70;99.90;;;;;;5087074;27;20025;-76
2023/01/12 08:46:47;;;;;;;224.52;88.43;;;3.70;99.90;;;;;;5093219;27;20036;-82
2023/01/12 08:49:13;;;;;;;169.15;75.30;;;3.80;99.90;;;;;;5081093;27;20186;-82
2023/01/12 08:51:40;;;;;;;298.63;119.05;;;3.80;99.90;;;;;;5067100;27;20022;-82
2023/01/12 08:54:10;;;;;;;98.32;46.85;;;3.80;99.90;;;;;;5068389;27;20041;-82
2023/01/12 08:56:36;;;;;;;62.88;31.45;;;3.80;99.90;;;;;;5121623;27;20493;-82
2023/01/12 08:59:03;;;;;;;60.63;32.30;;;3.90;99.90;;;;;;5121674;27;20104;-82
2023/01/12 09:01:29;;;;;;;84.65;43.58;;;3.90;99.90;;;;;;5052590;27;20386;-82
2023/01/12 09:03:56;;;;;;;59.67;32.35;;;4.00;99.90;;;;;;5121481;27;20518;-82
2023/01/12 09:06:28;;;;;;;64.45;34.42;;;4.00;99.90;;;;;;5121492;27;20021;-82
2023/01/12 09:08:55;;;;;;;;;;;4.10;99.90;;;;;;5052640;27;20132;-82
2023/01/12 09:11:21;;;;;;;71.57;42.08;;;4.10;99.90;;;;;;5051114;28;19909;-82
2023/01/12 09:13:47;;;;;;;86.85;43.85;;;4.20;99.90;;;;;;5066553;27;20021;-82
2023/01/12 09:16:16;;;;;;;46.10;23.05;;;4.20;99.90;;;;;;5052307;28;20031;-81
2023/01/12 09:18:41;;;;;;;39.70;23.13;;;4.30;99.90;;;;;;5052052;27;20028;-82
2023/01/12 09:21:09;;;;;;;70.38;45.17;;;4.40;99.90;;;;;;5052166;28;20610;-82
2023/01/12 09:23:35;;;;;;;53.25;30.30;;;4.40;99.90;;;;;;5034172;28;20025;-81
2023/01/12 09:26:04;;;;;;;44.28;24.33;;;4.50;99.90;;;;;;5034259;28;20028;-81
2023/01/12 09:28:30;;;;;;;37.10;19.08;;;4.50;99.90;;;;;;5065920;27;20432;-82
2023/01/12 09:31:06;;;;;;;37.58;23.25;;;4.60;99.90;;;;;;5062297;27;20378;-82
2023/01/12 09:33:33;;;;;;;48.25;26.17;;;4.70;99.90;;;;;;5074228;27;20100;-82
2023/01/12 09:36:14;;;;;;;30.02;16.73;;;4.80;99.90;;;;;;5034147;28;20025;-82
2023/01/12 09:38:42;;;;;;;27.95;16.65;;;4.80;99.90;;;;;;5083174;27;20429;-82
2023/01/12 09:41:15;;;;;;;46.22;32.78;;;4.90;99.90;;;;;;5156952;27;20490;-82
2023/01/12 09:49:25;;;;;;;31.13;18.83;;;5.20;99.90;;;;;;5051805;28;20562;-82
2023/01/12 09:51:58;;;;;;;45.65;29.35;;;5.30;99.90;;;;;;5051632;28;20155;-82
2023/01/12 09:54:24;;;;;;;;;;;5.40;99.90;;;;;;5052519;27;20096;-82
2023/01/12 09:57:06;;;;;;;28.95;15.68;;;5.40;99.90;;;;;;5103942;27;19935;-82
2023/01/12 09:59:52;;;;;;;34.47;22.58;;;5.50;99.90;;;;;;5138112;27;20030;-82
2023/01/12 10:02:18;;;;;;;36.40;22.95;;;5.50;99.90;;;;;;5156452;27;20106;-82
2023/01/12 10:04:47;;;;;;;25.15;17.65;;;5.60;99.90;;;;;;5156446;27;20097;-81
2023/01/12 10:07:15;;;;;;;22.40;14.60;;;5.60;99.90;;;;;;5156314;27;20106;-82
2023/01/12 10:09:41;;;;;;;30.30;20.98;;;5.70;99.90;;;;;;5137797;27;20027;-81
2023/01/12 10:12:21;;;;;;;36.17;23.35;;;5.60;99.90;;;;;;5156312;27;20030;-83
2023/01/12 10:14:56;;;;;;;21.65;13.27;;;5.70;99.90;;;;;;5122217;27;20032;-82
2023/01/12 10:17:29;;;;;;;23.67;14.18;;;5.80;99.90;;;;;;5156267;27;20029;-82
2023/01/12 10:20:04;;;;;;;32.70;24.55;;;5.80;99.90;;;;;;5059088;27;20025;-82
2023/01/12 10:22:38;;;;;;;27.00;17.10;;;5.80;99.90;;;;;;5049532;28;20029;-82
2023/01/12 10:25:20;;;;;;;22.50;14.23;;;5.90;99.90;;;;;;5058323;27;20108;-82
2023/01/12 10:27:49;;;;;;;22.83;16.00;;;5.90;99.90;;;;;;5050880;28;20029;-82
2023/01/12 10:30:34;;;;;;;32.22;21.23;;;6.00;99.90;;;;;;5036948;27;20032;-77
2023/01/12 10:33:36;;;;;;;23.05;12.07;;;6.00;99.90;;;;;;5077128;27;20146;-82
2023/01/12 10:36:09;;;;;;;23.52;13.40;;;6.00;99.90;;;;;;5051240;28;20101;-77
2023/01/12 10:38:38;;;;;;;21.38;12.27;;;5.90;99.90;;;;;;5041653;28;20359;-77
2023/01/12 10:41:15;;;;;;;23.27;14.88;;;5.90;99.90;;;;;;5048486;28;20085;-77
2023/01/12 10:43:42;;;;;;;20.20;14.65;;;5.90;99.90;;;;;;5047990;28;20025;-82
2023/01/12 10:46:18;;;;;;;20.55;11.85;;;5.80;99.90;;;;;;5047629;28;20017;-82
2023/01/12 10:48:49;;;;;;;21.45;13.80;;;5.80;99.90;;;;;;5091038;27;20367;-76
2023/01/12 10:51:25;;;;;;;16.58;11.88;;;5.80;99.90;;;;;;5114811;27;20017;-76
2023/01/12 10:53:54;;;;;;;46.17;18.98;;;5.70;99.90;;;;;;5115280;27;20025;-82
2023/01/12 10:56:36;;;;;;;39.63;17.27;;;5.70;99.90;;;;;;5115837;27;20121;-82
2023/01/12 10:59:04;;;;;;;45.63;17.60;;;5.70;99.90;;;;;;5117669;27;20112;-81
2023/01/12 11:01:58;;;;;;;33.67;13.68;;;5.70;99.90;;;;;;5050019;28;20070;-77
2023/01/12 11:04:27;;;;;;;50.35;19.15;;;5.70;99.90;;;;;;5050107;27;20037;-82
2023/01/12 11:07:00;;;;;;;21.23;10.40;;;5.80;99.90;;;;;;5119428;27;20478;-77
2023/01/12 11:09:29;;;;;;;40.80;15.63;;;5.80;99.90;;;;;;5049716;27;20490;-82
2023/01/12 11:12:14;;;;;;;40.75;14.45;;;5.80;99.90;;;;;;5050915;28;20021;-82
2023/01/12 11:14:40;;;;;;;124.05;42.92;;;5.90;99.90;;;;;;5049816;28;20117;-77
2023/01/12 11:17:25;;;;;;;672.58;326.33;;;6.00;99.90;;;;;;5050821;28;20100;-77
2023/01/12 11:19:54;;;;;;;319.90;116.78;;;6.10;99.90;;;;;;5118898;27;20040;-77
2023/01/12 11:22:26;;;;;;;98.20;32.97;;;6.10;99.90;;;;;;5119587;27;20427;-82
2023/01/12 11:25:20;;;;;;;66.35;20.38;;;6.20;99.90;;;;;;5119768;27;20180;-82
2023/01/12 11:28:09;;;;;;;29.17;11.23;;;6.30;99.90;;;;;;5050540;27;20474;-81
2023/01/12 11:30:43;;;;;;;279.50;115.85;;;6.30;99.90;;;;;;5118770;27;20486;-77
2023/01/12 11:33:08;;;;;;;434.77;152.45;;;6.40;99.90;;;;;;5119449;27;20116;-82
2023/01/12 11:35:43;;;;;;;89.70;26.00;;;6.50;99.90;;;;;;5050769;28;20105;-78
2023/01/12 11:38:26;;;;;;;41.63;14.60;;;6.40;99.90;;;;;;5050816;27;20427;-77
2023/01/12 11:40:55;;;;;;;283.58;114.45;;;6.50;99.90;;;;;;5050625;28;20061;-77
2023/01/12 11:43:49;;;;;;;399.02;136.43;;;6.70;99.90;;;;;;5050516;27;20013;-77
2023/01/12 11:46:33;;;;;;;69.93;19.15;;;6.80;99.90;;;;;;5119508;27;20606;-82
2023/01/12 11:49:15;;;;;;;71.38;20.27;;;6.80;99.90;;;;;;5119207;28;20037;-82
2023/01/12 11:51:41;;;;;;;26.75;9.40;;;6.70;99.90;;;;;;5118708;27;20064;-77
2023/01/12 11:54:13;;;;;;;112.53;46.60;;;6.60;99.90;;;;;;5050544;27;20103;-77
2023/01/12 11:56:51;;;;;;;70.35;21.75;;;6.50;99.90;;;;;;5050504;27;20037;-77
2023/01/12 11:59:28;;;;;;;39.97;11.80;;;6.50;99.90;;;;;;5050362;28;20125;-82
2023/01/12 12:01:59;;;;;;;38.58;11.75;;;6.40;99.90;;;;;;5050381;28;20029;-82
2023/01/12 12:04:59;;;;;;;33.00;11.00;;;6.30;99.90;;;;;;5118937;28;20028;-82
2023/01/12 12:07:25;;;;;;;44.72;16.15;;;6.30;99.90;;;;;;5050192;28;20061;-77
2023/01/12 12:10:17;;;;;;;72.47;26.50;;;6.30;99.90;;;;;;5050155;28;20545;-81
2023/01/12 12:13:01;;;;;;;110.60;42.45;;;6.30;99.90;;;;;;5114205;28;20124;-82
2023/01/12 12:15:41;;;;;;;57.25;17.50;;;6.40;99.90;;;;;;5119082;28;20021;-82
2023/01/12 12:18:53;;;;;;;41.83;13.48;;;6.40;99.90;;;;;;5050093;27;20070;-82
2023/01/12 12:21:53;;;;;;;34.00;11.27;;;6.50;99.90;;;;;;5051043;28;20479;-82
2023/01/12 12:24:27;;;;;;;369.00;153.38;;;6.50;99.90;;;;;;5118782;28;20084;-82
2023/01/12 12:27:25;;;;;;;130.00;48.97;;;6.50;99.90;;;;;;5049907;28;20390;-82
2023/01/12 12:30:10;;;;;;;47.45;15.05;;;6.60;99.90;;;;;;5119735;28;20064;-79
2023/01/12 12:33:01;;;;;;;45.60;14.23;;;6.70;99.90;;;;;;5118773;28;20053;-78
2023/01/12 12:35:59;;;;;;;81.38;36.20;;;6.70;99.90;;;;;;5049959;27;20023;-79
2023/01/12 12:38:49;;;;;;;54.83;17.10;;;6.80;99.90;;;;;;5050027;27;20036;-79
2023/01/12 12:47:43;;;;;;;26.35;9.63;;;7.00;99.90;;;;;;5049866;28;20028;-84
2023/01/12 12:50:23;;;;;;;14.15;5.82;;;7.00;99.90;;;;;;5118721;28;20482;-79
2023/01/12 12:53:00;;;;;;;18.33;7.82;;;7.10;99.90;;;;;;5049919;27;20027;-83
2023/01/12 12:55:26;;;;;;;9.05;4.07;;;7.10;99.90;;;;;;5118782;28;20135;-79
2023/01/12 12:58:04;;;;;;;14.95;6.45;;;7.10;99.90;;;;;;5118428;28;20128;-78
2023/01/12 13:00:39;;;;;;;26.33;10.23;;;7.20;99.90;;;;;;5049517;27;20025;-79
2023/01/12 13:03:05;;;;;;;22.02;9.05;;;7.20;99.90;;;;;;5049690;27;20041;-78
2023/01/12 13:06:08;;;;;;;26.20;10.77;;;7.20;99.90;;;;;;5052332;28;20107;-84
2023/01/12 13:08:35;;;;;;;17.15;7.07;;;7.20;99.90;;;;;;5046696;28;20033;-78
2023/01/12 13:11:00;;;;;;;13.95;6.15;;;7.20;99.90;;;;;;5032836;28;20592;-79
2023/01/12 13:13:32;;;;;;;11.20;4.53;;;7.20;99.90;;;;;;5014910;28;20025;-84
2023/01/12 13:16:18;;;;;;;18.35;8.93;;;7.20;99.90;;;;;;5015223;28;20067;-83
2023/01/12 13:18:49;;;;;;;12.93;5.55;;;7.20;99.90;;;;;;5032410;28;20053;-79
2023/01/12 13:21:54;;;;;;;21.38;9.18;;;7.20;99.90;;;;;;5015289;28;20482;-78
2023/01/12 13:24:46;;;;;;;10.73;4.13;;;7.30;99.90;;;;;;5032669;28;20025;-84
2023/01/12 13:27:55;;;;;;;16.85;6.70;;;7.30;99.90;;;;;;5016466;28;20029;-84
2023/01/12 13:30:23;;;;;;;9.35;4.32;;;7.30;99.90;;;;;;5025013;28;20049;-79
2023/01/12 13:32:56;;;;;;;9.93;4.68;;;7.30;99.90;;;;;;5032473;28;20034;-84
2023/01/12 13:35:33;;;;;;;15.60;5.35;;;7.30;99.90;;;;;;5014800;28;20120;-84